Sloman Herakles — V2FY4 — position and weather

sailwx.info

Track history (hours):
 
Tides and Currents Weather Stations Pressure Air Temp Water Temp Dewpoint Dewpoint Depression Visibility Wind Speed Wind Dir Waves Ship Positions

Sloman Herakles

Last reported at 2016-May-27 14:29 UTC. Time now 2016-May-27 16:02 UTC.
Position N 45°33' W 073°31'.

Length 145 m; draft 7.7 m.

Type: Ship (hazmat cat D). MMSI: 305851000.

Date/timePositionNaut miles runAvg speedWind from/ knotsBaromVisibWave heightAir tempDewpointWater temp
2016-May-27 14:29N 45°33' W 073°31'3 2.9
2016-May-27 13:29N 45°36' W 073°30'8 8.8
2016-May-27 12:34N 45°44' W 073°26'10 9.5
2016-May-27 11:34N 45°51' W 073°17'9 9.3
2016-May-27 10:33N 45°59' W 073°11'8 8.5
2016-May-27 09:33N 46°05' W 073°02'1010.2
2016-May-27 08:34N 46°12' W 072°52'  
2016-May-21 16:30N 39°05' W 073°15'1112.1
2016-May-21 15:33N 39°01' W 073°29'1212.1
2016-May-21 14:32N 38°58' W 073°44'1212.1
2016-May-21 13:33N 38°54' W 073°59'1212.0
2016-May-21 12:33N 38°51' W 074°13'1211.8
2016-May-21 11:33N 38°47' W 074°28'1111.5
2016-May-21 10:33N 38°46' W 074°43'1211.5
2016-May-21 09:34N 38°46' W 074°57'9 8.9
2016-May-21 08:33N 38°52' W 075°05'1212.4
2016-May-21 07:33N 39°04' W 075°11'1413.9
2016-May-21 06:34N 39°16' W 075°20'1413.6
2016-May-21 05:33N 39°26' W 075°32'1110.6
2016-May-21 04:34N 39°36' W 075°34'9 9.0
2016-May-21 03:33N 39°45' W 075°30'6 6.1
2016-May-21 02:33N 39°49' W 075°24'0 0.0
2016-May-21 01:33N 39°49' W 075°24'0 0.1
2016-May-21 00:33N 39°49' W 075°24'0 0.2
2016-May-20 23:33N 39°48' W 075°24'0 0.0
2016-May-20 22:33N 39°48' W 075°24'0 0.0
2016-May-20 21:33N 39°48' W 075°24'0 0.0
2016-May-20 20:33N 39°48' W 075°24'0 0.0
2016-May-20 19:33N 39°49' W 075°24'4 3.9
2016-May-20 18:34N 39°51' W 075°20'8 7.8
2016-May-20 17:34N 39°53' W 075°10'1 0.6
2016-May-20 16:33N 39°53' W 075°09'0 0.0
2016-May-20 15:33N 39°53' W 075°09'0 0.0
2016-May-20 14:33N 39°53' W 075°09'0 0.0
2016-May-20 13:33N 39°53' W 075°09'0 0.0
2016-May-20 12:33N 39°53' W 075°09'0 0.0
2016-May-20 11:33N 39°53' W 075°09'0 0.0
2016-May-20 10:33N 39°53' W 075°09'0 0.0
2016-May-20 09:33N 39°53' W 075°09'0 0.0
2016-May-20 08:33N 39°53' W 075°09'0 0.0
2016-May-20 07:31N 39°53' W 075°09'0 0.0
2016-May-20 06:33N 39°53' W 075°09'0 0.0
2016-May-20 05:33N 39°53' W 075°09'0 0.0
2016-May-20 04:33N 39°53' W 075°09'0 0.0
2016-May-20 03:33N 39°53' W 075°09'0 0.0
2016-May-20 02:33N 39°53' W 075°09'0 0.0
2016-May-20 01:33N 39°53' W 075°09'0 0.0
2016-May-20 00:33N 39°53' W 075°09'0 0.0
2016-May-19 23:33N 39°53' W 075°09'0 0.0
2016-May-19 22:33N 39°53' W 075°09'0 0.0
2016-May-19 21:33N 39°53' W 075°09'0 0.0
2016-May-19 20:30N 39°53' W 075°09'0 0.0
2016-May-19 19:33N 39°53' W 075°09'0 0.0
2016-May-19 18:33N 39°53' W 075°09'0 0.0
2016-May-19 17:33N 39°53' W 075°09'0 0.0
2016-May-19 16:33N 39°53' W 075°09'0 0.0
2016-May-19 15:33N 39°53' W 075°09'0 0.0
2016-May-19 14:33N 39°53' W 075°09'0 0.0
2016-May-19 13:33N 39°53' W 075°09'0 0.0
2016-May-19 12:33N 39°53' W 075°09'0 0.0
2016-May-19 11:33N 39°53' W 075°09'0 0.0
2016-May-19 10:33N 39°53' W 075°09'0 0.0
2016-May-19 09:33N 39°53' W 075°09'0 0.0
2016-May-19 08:33N 39°53' W 075°09'0 0.0
2016-May-19 07:33N 39°53' W 075°09'0 0.0
2016-May-19 06:33N 39°53' W 075°09'0 0.0
2016-May-19 05:33N 39°53' W 075°09'0 0.0
2016-May-19 04:33N 39°53' W 075°09'0 0.0
2016-May-19 03:33N 39°53' W 075°09'0 0.0
2016-May-19 02:31N 39°53' W 075°09'0 0.0
2016-May-19 01:33N 39°53' W 075°09'0 0.0
2016-May-19 00:33N 39°53' W 075°09'2 1.8
2016-May-18 23:33N 39°53' W 075°12'9 9.0
2016-May-18 22:33N 39°50' W 075°23'1110.6
2016-May-18 21:33N 39°41' W 075°31'10 9.8
2016-May-18 20:33N 39°32' W 075°33'1010.0
2016-May-18 19:33N 39°22' W 075°28'1111.1
2016-May-18 18:33N 39°14' W 075°18'1211.6
2016-May-18 17:33N 39°04' W 075°11'1211.8
2016-May-18 16:33N 38°53' W 075°05'12 5.5
2016-May-18 14:17N 38°48' W 074°50'6 6.6
2016-May-18 13:19N 38°48' W 074°42'5 7.2
2016-May-18 12:33N 38°49' W 074°35'  
Track history (hours):
 
Tides and Currents Weather Stations Pressure Air Temp Water Temp Dewpoint Dewpoint Depression Visibility Wind Speed Wind Dir Waves Ship Positions

Sloman Herakles

Last reported at 2016-May-27 14:29 UTC. Time now 2016-May-27 16:02 UTC.
Position N 45°33' W 073°31'.

Length 145 m; draft 7.7 m.

Type: Ship (hazmat cat D). MMSI: 305851000.

Date/timePositionNaut miles runAvg speedWind from/ knotsBaromVisibWave heightAir tempDewpointWater temp
2016-May-27 14:29N 45°33' W 073°31'3 2.9
2016-May-27 13:29N 45°36' W 073°30'8 8.8
2016-May-27 12:34N 45°44' W 073°26'10 9.5
2016-May-27 11:34N 45°51' W 073°17'9 9.3
2016-May-27 10:33N 45°59' W 073°11'8 8.5
2016-May-27 09:33N 46°05' W 073°02'1010.2
2016-May-27 08:34N 46°12' W 072°52'  
2016-May-21 16:30N 39°05' W 073°15'1112.1
2016-May-21 15:33N 39°01' W 073°29'1212.1
2016-May-21 14:32N 38°58' W 073°44'1212.1
2016-May-21 13:33N 38°54' W 073°59'1212.0
2016-May-21 12:33N 38°51' W 074°13'1211.8
2016-May-21 11:33N 38°47' W 074°28'1111.5
2016-May-21 10:33N 38°46' W 074°43'1211.5
2016-May-21 09:34N 38°46' W 074°57'9 8.9
2016-May-21 08:33N 38°52' W 075°05'1212.4
2016-May-21 07:33N 39°04' W 075°11'1413.9
2016-May-21 06:34N 39°16' W 075°20'1413.6
2016-May-21 05:33N 39°26' W 075°32'1110.6
2016-May-21 04:34N 39°36' W 075°34'9 9.0
2016-May-21 03:33N 39°45' W 075°30'6 6.1
2016-May-21 02:33N 39°49' W 075°24'0 0.0
2016-May-21 01:33N 39°49' W 075°24'0 0.1
2016-May-21 00:33N 39°49' W 075°24'0 0.2
2016-May-20 23:33N 39°48' W 075°24'0 0.0
2016-May-20 22:33N 39°48' W 075°24'0 0.0
2016-May-20 21:33N 39°48' W 075°24'0 0.0
2016-May-20 20:33N 39°48' W 075°24'0 0.0
2016-May-20 19:33N 39°49' W 075°24'4 3.9
2016-May-20 18:34N 39°51' W 075°20'8 7.8
2016-May-20 17:34N 39°53' W 075°10'1 0.6
2016-May-20 16:33N 39°53' W 075°09'0 0.0
2016-May-20 15:33N 39°53' W 075°09'0 0.0
2016-May-20 14:33N 39°53' W 075°09'0 0.0
2016-May-20 13:33N 39°53' W 075°09'0 0.0
2016-May-20 12:33N 39°53' W 075°09'0 0.0
2016-May-20 11:33N 39°53' W 075°09'0 0.0
2016-May-20 10:33N 39°53' W 075°09'0 0.0
2016-May-20 09:33N 39°53' W 075°09'0 0.0
2016-May-20 08:33N 39°53' W 075°09'0 0.0
2016-May-20 07:31N 39°53' W 075°09'0 0.0
2016-May-20 06:33N 39°53' W 075°09'0 0.0
2016-May-20 05:33N 39°53' W 075°09'0 0.0
2016-May-20 04:33N 39°53' W 075°09'0 0.0
2016-May-20 03:33N 39°53' W 075°09'0 0.0
2016-May-20 02:33N 39°53' W 075°09'0 0.0
2016-May-20 01:33N 39°53' W 075°09'0 0.0
2016-May-20 00:33N 39°53' W 075°09'0 0.0
2016-May-19 23:33N 39°53' W 075°09'0 0.0
2016-May-19 22:33N 39°53' W 075°09'0 0.0
2016-May-19 21:33N 39°53' W 075°09'0 0.0
2016-May-19 20:30N 39°53' W 075°09'0 0.0
2016-May-19 19:33N 39°53' W 075°09'0 0.0
2016-May-19 18:33N 39°53' W 075°09'0 0.0
2016-May-19 17:33N 39°53' W 075°09'0 0.0
2016-May-19 16:33N 39°53' W 075°09'0 0.0
2016-May-19 15:33N 39°53' W 075°09'0 0.0
2016-May-19 14:33N 39°53' W 075°09'0 0.0
2016-May-19 13:33N 39°53' W 075°09'0 0.0
2016-May-19 12:33N 39°53' W 075°09'0 0.0
2016-May-19 11:33N 39°53' W 075°09'0 0.0
2016-May-19 10:33N 39°53' W 075°09'0 0.0
2016-May-19 09:33N 39°53' W 075°09'0 0.0
2016-May-19 08:33N 39°53' W 075°09'0 0.0
2016-May-19 07:33N 39°53' W 075°09'0 0.0
2016-May-19 06:33N 39°53' W 075°09'0 0.0
2016-May-19 05:33N 39°53' W 075°09'0 0.0
2016-May-19 04:33N 39°53' W 075°09'0 0.0
2016-May-19 03:33N 39°53' W 075°09'0 0.0
2016-May-19 02:31N 39°53' W 075°09'0 0.0
2016-May-19 01:33N 39°53' W 075°09'0 0.0
2016-May-19 00:33N 39°53' W 075°09'2 1.8
2016-May-18 23:33N 39°53' W 075°12'9 9.0
2016-May-18 22:33N 39°50' W 075°23'1110.6
2016-May-18 21:33N 39°41' W 075°31'10 9.8
2016-May-18 20:33N 39°32' W 075°33'1010.0
2016-May-18 19:33N 39°22' W 075°28'1111.1
2016-May-18 18:33N 39°14' W 075°18'1211.6
2016-May-18 17:33N 39°04' W 075°11'1211.8
2016-May-18 16:33N 38°53' W 075°05'12 5.5
2016-May-18 14:17N 38°48' W 074°50'6 6.6
2016-May-18 13:19N 38°48' W 074°42'5 7.2
2016-May-18 12:33N 38°49' W 074°35'  

Dump ship's entire track history